Aérodrome :
LOGIN :

S'inscrire | Disclaimer

   EN    FR    IT 

 










Légende :    VFR   VFR Marginal   IFR   IFR Intensif   IFR Très Intensif
Visi : 
Plafond : 
>= 8 km
>= 3000ft
5 à 8 km
1000 à 3000 ft
1500m à 5 km
500 à 1000 ft
800 à 1500m
200 à 500 ft
< 800m
< 200 ft
Symboles :   Orages  Brouillard  Fortes neiges  Fortes précipitations  Vent > 20 kt
SIGMETs :   Divers  Orages  Givrage  Turbulence  Onde Orograph.  Cendres Volcan.







- Altitude de l'aérodrome : 1106 ft
- Voir les cartes d'approche


LFSO - Nancy / Ochey

DERNIER METAR :
  • 142130Z AUTO 12005KT 0450 0400 R20/0500N FG VV/// 03/03 Q1026

METARs EXPIRÉS :
  • 142100Z AUTO 11004KT 0350 R20/0400N FG VV/// 03/03 Q1026
  • 142030Z AUTO 10003KT 0350 R20/0375N FG VV/// 03/03 Q1026
  • 142000Z AUTO VRB03KT 0450 0400 R20/0450N FG VV/// 03/03 Q1026
  • 141930Z AUTO 12003KT 090V150 0400 0350 R20/0375N FG VV/// 04/04 Q1026
  • 141900Z AUTO 14003KT 0400 0350 R20/0400U FG VV/// 04/04 Q1026
  • 141830Z AUTO VRB02KT 0400 0350 R20/0500N FG VV/// 04/04 Q1026

TAF TAF LFSO
Valide du 14 à 15h jusqu'au 15 à 15h UTC


141400Z 1415/1515 09005KT 1500 BR BKN003
BECMG 1415/1417 0200 FG VV///
TEMPO 1512/1515 2000 BR BKN004
Pas de NOTAMs connus pour ce terrain.



MET'MAP, la Météo Aéronautique d'un coup d'oeil ! - Copyright ORBIFLY Décembre 2007 - Disclaimer

ORBIFLY MET'MAP TEAM :

Programmation & Développement : Alexandra Zaïnal
Conception & Développement : Baudouin d'Aumeries
Co-Programmation & Développement : Marc-Olivier Méhu
Soutien technique & logistique : Manuel Goepfert

Contact : metmap@orbifly.com




SOURCES & CREDITS :

   NOAA